createdAt,value
2022-09-06T00:00:25.065Z,101547.00
2022-09-06T00:02:52.491Z,101549.00
2022-09-06T00:05:19.877Z,101542.00
2022-09-06T00:07:46.866Z,101538.00
2022-09-06T00:10:15.179Z,101547.00
2022-09-06T00:12:42.081Z,101539.00
2022-09-06T00:15:09.820Z,101541.00
2022-09-06T00:17:36.864Z,101533.00
2022-09-06T00:20:08.592Z,101541.00
2022-09-06T00:22:36.662Z,101535.00
2022-09-06T00:25:07.003Z,101548.00
2022-09-06T00:27:34.721Z,101555.00
2022-09-06T00:30:01.819Z,101542.00
2022-09-06T00:32:28.727Z,101548.00
2022-09-06T00:34:55.743Z,101551.00
2022-09-06T00:37:22.677Z,101530.00
2022-09-06T00:39:49.729Z,101513.00
2022-09-06T00:42:16.657Z,101520.00
2022-09-06T00:44:43.537Z,101541.00
2022-09-06T00:47:10.558Z,101545.00
2022-09-06T00:49:49.145Z,101540.00
2022-09-06T00:52:19.800Z,101524.00
2022-09-06T00:54:49.916Z,101538.00
2022-09-06T00:57:18.634Z,101537.00
2022-09-06T00:59:48.025Z,101520.00
2022-09-06T01:02:15.217Z,101530.00
2022-09-06T01:04:45.180Z,101529.00
2022-09-06T01:07:54.659Z,101526.00
2022-09-06T01:10:39.928Z,101516.00
2022-09-06T01:13:34.332Z,101521.00
2022-09-06T01:16:06.868Z,101516.00
2022-09-06T01:19:34.590Z,101519.00
2022-09-06T01:22:40.153Z,101519.00
2022-09-06T01:26:06.261Z,101520.00
2022-09-06T01:28:44.994Z,101508.00
2022-09-06T01:31:33.175Z,101504.00
2022-09-06T01:34:05.952Z,101513.00
2022-09-06T01:37:09.354Z,101497.00
2022-09-06T01:39:39.356Z,101508.00
2022-09-06T01:42:08.728Z,101500.00
2022-09-06T01:44:40.931Z,101498.00
2022-09-06T01:47:31.974Z,101499.00
2022-09-06T01:50:54.016Z,101497.00
2022-09-06T01:53:55.812Z,101501.00
2022-09-06T01:56:51.665Z,101499.00
2022-09-06T01:59:45.912Z,101500.00
2022-09-06T02:02:35.639Z,101498.00
2022-09-06T02:05:27.775Z,101494.00
2022-09-06T02:08:17.999Z,101500.00
2022-09-06T02:11:14.600Z,101486.00
2022-09-06T02:13:53.772Z,101488.00
2022-09-06T02:16:26.647Z,101495.00
2022-09-06T02:19:13.698Z,101490.00
2022-09-06T02:21:45.696Z,101494.00
2022-09-06T02:24:25.804Z,101493.00
2022-09-06T02:26:52.885Z,101478.00
2022-09-06T02:29:20.120Z,101483.00
2022-09-06T02:32:21.034Z,101481.00
2022-09-06T02:34:51.240Z,101480.00
2022-09-06T02:37:19.337Z,101476.00
2022-09-06T02:39:46.587Z,101448.00
2022-09-06T02:42:15.712Z,101489.00
2022-09-06T02:44:42.708Z,101491.00
2022-09-06T02:47:10.080Z,101494.00
2022-09-06T02:49:37.282Z,101490.00
2022-09-06T02:52:04.292Z,101485.00
2022-09-06T02:54:31.301Z,101478.00
2022-09-06T02:56:58.298Z,101488.00
2022-09-06T02:59:25.297Z,101460.00
2022-09-06T03:01:52.223Z,101493.00
2022-09-06T03:04:19.251Z,101487.00
2022-09-06T03:18:33.091Z,101486.00
2022-09-06T03:21:00.084Z,101487.00
2022-09-06T03:23:29.526Z,101492.00
2022-09-06T03:25:57.141Z,101476.00
2022-09-06T03:28:24.722Z,101492.00
2022-09-06T03:30:53.032Z,101481.00
2022-09-06T03:33:21.426Z,101485.00
2022-09-06T03:35:58.137Z,101472.00
2022-09-06T03:38:28.030Z,101487.00
2022-09-06T03:40:55.685Z,101479.00
2022-09-06T03:43:25.020Z,101481.00
2022-09-06T03:45:55.427Z,101477.00
2022-09-06T03:48:24.970Z,101459.00
2022-09-06T03:50:56.405Z,101484.00
2022-09-06T03:53:26.559Z,101486.00
2022-09-06T03:55:57.667Z,101483.00
2022-09-06T03:58:30.460Z,101471.00
2022-09-06T04:01:09.734Z,101474.00
2022-09-06T04:03:38.124Z,101467.00
2022-09-06T04:06:06.840Z,101472.00
2022-09-06T04:08:35.522Z,101460.00
2022-09-06T04:11:02.696Z,101456.00
2022-09-06T04:13:31.749Z,101456.00
2022-09-06T04:15:58.953Z,101452.00
2022-09-06T04:18:26.600Z,101451.00
2022-09-06T04:20:56.371Z,101454.00
2022-09-06T04:23:25.744Z,101448.00
2022-09-06T04:25:56.529Z,101463.00
2022-09-06T04:28:24.690Z,101467.00
2022-09-06T04:31:04.604Z,101468.00
2022-09-06T04:33:34.328Z,101476.00
2022-09-06T04:36:04.609Z,101470.00
2022-09-06T04:38:43.511Z,101470.00
2022-09-06T04:41:13.933Z,101472.00
2022-09-06T04:43:40.870Z,101464.00
2022-09-06T04:46:26.965Z,101471.00
2022-09-06T04:48:55.656Z,101473.00
2022-09-06T04:51:24.903Z,101458.00
2022-09-06T04:53:52.429Z,101467.00
2022-09-06T04:56:23.569Z,101470.00
2022-09-06T04:58:52.672Z,101465.00
2022-09-06T05:01:20.581Z,101469.00
2022-09-06T05:03:48.044Z,101473.00
2022-09-06T05:06:20.966Z,101468.00
2022-09-06T05:08:48.760Z,101469.00
2022-09-06T05:11:16.390Z,101463.00
2022-09-06T05:13:46.402Z,101468.00
2022-09-06T05:16:13.568Z,101478.00
2022-09-06T05:18:40.530Z,101474.00
2022-09-06T05:21:07.772Z,101481.00
2022-09-06T05:23:34.988Z,101487.00
2022-09-06T05:26:02.557Z,101469.00
2022-09-06T05:28:29.821Z,101469.00
2022-09-06T05:31:12.129Z,101480.00
2022-09-06T05:33:39.773Z,101480.00
2022-09-06T05:36:09.565Z,101469.00
2022-09-06T05:38:36.506Z,101478.00
2022-09-06T05:41:03.488Z,101475.00
2022-09-06T05:43:30.460Z,101482.00
2022-09-06T05:45:57.476Z,101476.00
2022-09-06T05:48:24.465Z,101478.00
2022-09-06T05:51:06.056Z,101485.00
2022-09-06T05:53:45.047Z,101474.00
2022-09-06T05:56:16.996Z,101481.00
2022-09-06T05:58:44.183Z,101479.00
2022-09-06T06:01:18.708Z,101490.00
2022-09-06T06:03:52.632Z,101482.00
2022-09-06T06:06:20.721Z,101478.00
2022-09-06T06:08:48.319Z,101484.00
2022-09-06T06:11:16.452Z,101485.00
2022-09-06T06:13:44.205Z,101481.00
2022-09-06T06:16:15.416Z,101476.00
2022-09-06T06:18:47.663Z,101488.00
2022-09-06T06:21:26.669Z,101494.00
2022-09-06T06:24:00.253Z,101491.00
2022-09-06T06:26:29.489Z,101483.00
2022-09-06T06:28:58.915Z,101485.00
2022-09-06T06:31:25.864Z,101475.00
2022-09-06T06:33:53.043Z,101473.00
2022-09-06T06:36:27.232Z,101484.00
2022-09-06T06:38:55.965Z,101421.00
2022-09-06T06:41:27.674Z,101478.00
2022-09-06T06:43:59.846Z,101478.00
2022-09-06T06:46:31.635Z,101479.00
2022-09-06T06:48:58.860Z,101477.00
2022-09-06T06:51:29.640Z,101488.00
2022-09-06T06:53:56.993Z,101457.00
2022-09-06T06:56:25.225Z,101480.00
2022-09-06T06:58:55.703Z,101492.00
2022-09-06T07:01:24.264Z,101488.00
2022-09-06T07:03:52.143Z,101482.00
2022-09-06T07:06:21.211Z,101480.00
2022-09-06T07:08:49.221Z,101488.00
2022-09-06T07:11:21.618Z,101477.00
2022-09-06T07:13:51.725Z,101460.00
2022-09-06T07:16:25.252Z,101479.00
2022-09-06T07:18:54.642Z,101481.00
2022-09-06T07:21:42.367Z,101476.00
2022-09-06T07:24:09.944Z,101477.00
2022-09-06T07:26:39.674Z,101467.00
2022-09-06T07:29:08.580Z,101467.00
2022-09-06T07:34:27.620Z,101466.00
2022-09-06T07:36:58.693Z,101462.00
2022-09-06T07:39:25.635Z,101471.00
2022-09-06T07:41:52.663Z,101470.00
2022-09-06T07:44:19.629Z,101460.00
2022-09-06T07:46:47.105Z,101465.00
2022-09-06T07:49:14.029Z,101455.00
2022-09-06T07:51:40.943Z,101464.00
2022-09-06T07:54:29.470Z,101455.00
2022-09-06T07:56:54.793Z,101459.00
2022-09-06T07:59:21.757Z,101459.00
2022-09-06T08:01:50.047Z,101459.00
2022-09-06T08:04:17.053Z,101448.00
2022-09-06T08:09:36.423Z,101449.00
2022-09-06T08:12:07.390Z,101452.00
2022-09-06T08:14:35.203Z,101443.00
2022-09-06T08:17:05.227Z,101449.00
2022-09-06T08:19:32.229Z,101445.00
2022-09-06T08:21:59.184Z,101440.00
2022-09-06T08:24:26.311Z,101439.00
2022-09-06T08:26:53.241Z,101446.00
2022-09-06T08:29:20.167Z,101442.00
2022-09-06T08:31:47.983Z,101444.00
2022-09-06T08:34:15.984Z,101441.00
2022-09-06T08:36:45.372Z,101444.00
2022-09-06T08:39:12.641Z,101439.00
2022-09-06T08:42:00.811Z,101443.00
2022-09-06T08:47:21.723Z,101434.00
2022-09-06T08:50:02.499Z,101432.00
2022-09-06T08:53:13.139Z,101430.00
2022-09-06T08:56:13.233Z,101426.00
2022-09-06T08:59:08.259Z,101421.00
2022-09-06T09:02:17.268Z,101413.00
2022-09-06T09:05:04.695Z,101419.00
2022-09-06T09:07:47.856Z,101429.00
2022-09-06T09:10:43.642Z,101432.00
2022-09-06T09:13:26.998Z,101413.00
2022-09-06T09:15:54.003Z,101414.00
2022-09-06T09:18:28.142Z,101414.00
2022-09-06T09:20:55.230Z,101410.00
2022-09-06T09:23:22.389Z,101399.00
2022-09-06T09:25:52.772Z,101401.00
2022-09-06T09:28:23.835Z,101399.00
2022-09-06T09:30:54.125Z,101405.00
2022-09-06T09:33:29.239Z,101393.00
2022-09-06T09:36:01.209Z,101383.00
2022-09-06T09:38:42.482Z,101388.00
2022-09-06T09:41:11.353Z,101377.00
2022-09-06T09:43:42.407Z,101378.00
2022-09-06T09:46:24.544Z,101402.00
2022-09-06T09:49:13.539Z,101370.00
2022-09-06T09:51:44.532Z,101386.00
2022-09-06T09:54:15.189Z,101388.00
2022-09-06T09:56:54.343Z,101377.00
2022-09-06T09:59:32.052Z,101375.00
2022-09-06T10:02:02.078Z,101359.00
2022-09-06T10:07:17.601Z,101366.00
2022-09-06T10:09:50.543Z,101359.00
2022-09-06T10:12:32.324Z,101360.00
2022-09-06T10:15:02.518Z,101349.00
2022-09-06T10:17:49.591Z,101352.00
2022-09-06T10:20:16.698Z,101365.00
2022-09-06T10:23:05.111Z,101359.00
2022-09-06T10:25:50.395Z,101363.00
2022-09-06T10:28:44.142Z,101342.00
2022-09-06T10:31:37.158Z,101339.00
2022-09-06T10:34:41.038Z,101357.00
2022-09-06T10:37:33.333Z,101361.00
2022-09-06T10:40:13.997Z,101351.00
2022-09-06T10:42:55.420Z,101355.00
2022-09-06T10:45:44.591Z,101360.00
2022-09-06T10:48:45.877Z,101333.00
2022-09-06T10:51:41.261Z,101346.00
2022-09-06T10:54:15.280Z,101329.00
2022-09-06T11:10:17.415Z,101335.00
2022-09-06T11:13:26.930Z,101338.00
2022-09-06T11:16:39.248Z,101336.00
2022-09-06T11:19:53.733Z,101340.00
2022-09-06T11:22:47.044Z,101328.00
2022-09-06T11:25:50.725Z,101332.00
2022-09-06T11:28:31.298Z,101320.00
2022-09-06T11:30:59.137Z,101324.00
2022-09-06T11:33:31.571Z,101314.00
2022-09-06T11:36:27.502Z,101310.00
2022-09-06T11:39:01.244Z,101310.00
2022-09-06T11:41:34.784Z,101305.00
2022-09-06T11:44:04.157Z,101308.00
2022-09-06T11:46:34.143Z,101305.00
2022-09-06T11:49:05.053Z,101298.00
2022-09-06T11:51:44.851Z,101296.00
2022-09-06T11:54:23.462Z,101286.00
2022-09-06T11:57:13.936Z,101299.00
2022-09-06T11:59:47.696Z,101299.00
2022-09-06T12:02:38.210Z,101281.00
2022-09-06T12:05:07.417Z,101283.00
2022-09-06T12:07:37.906Z,101276.00
2022-09-06T12:10:29.648Z,101272.00
2022-09-06T12:12:57.556Z,101281.00
2022-09-06T12:15:26.173Z,101277.00
2022-09-06T12:17:53.718Z,101277.00
2022-09-06T12:20:48.298Z,101271.00
2022-09-06T12:23:50.784Z,101268.00
2022-09-06T12:27:08.029Z,101263.00
2022-09-06T12:29:36.074Z,101254.00
2022-09-06T12:32:05.880Z,101254.00
2022-09-06T12:34:37.640Z,101252.00
2022-09-06T12:37:11.070Z,101257.00
2022-09-06T12:39:38.361Z,101244.00
2022-09-06T12:42:13.317Z,101243.00
2022-09-06T12:44:49.690Z,101240.00
2022-09-06T12:47:37.773Z,101249.00
2022-09-06T12:50:24.041Z,101238.00
2022-09-06T12:53:01.014Z,101242.00
2022-09-06T12:55:38.589Z,101240.00
2022-09-06T12:58:12.216Z,101234.00
2022-09-06T13:00:44.299Z,101227.00
2022-09-06T13:03:29.763Z,101228.00
2022-09-06T13:06:02.255Z,101230.00
2022-09-06T13:08:47.410Z,101212.00
2022-09-06T13:11:20.605Z,101231.00
2022-09-06T13:13:55.361Z,101223.00
2022-09-06T13:16:33.162Z,101213.00
2022-09-06T13:19:38.193Z,101218.00
2022-09-06T13:22:11.249Z,101210.00
2022-09-06T13:24:47.942Z,101218.00
2022-09-06T13:27:38.244Z,101213.00
2022-09-06T13:30:10.469Z,101208.00
2022-09-06T13:32:47.660Z,101209.00
2022-09-06T13:35:24.897Z,101200.00
2022-09-06T13:37:52.043Z,101202.00
2022-09-06T13:41:09.276Z,101198.00
2022-09-06T13:43:34.146Z,101199.00
2022-09-06T13:46:06.075Z,101205.00
2022-09-06T13:48:34.435Z,101203.00
2022-09-06T13:51:05.123Z,101207.00
2022-09-06T13:53:33.167Z,101193.00
2022-09-06T13:56:00.115Z,101203.00
2022-09-06T13:58:28.012Z,101201.00
2022-09-06T14:00:55.306Z,101192.00
2022-09-06T14:03:31.151Z,101179.00
2022-09-06T14:06:00.329Z,101189.00
2022-09-06T14:08:43.696Z,101190.00
2022-09-06T14:11:16.939Z,101190.00
2022-09-06T14:13:44.223Z,101188.00
2022-09-06T14:16:12.142Z,101179.00
2022-09-06T14:18:40.166Z,101171.00
2022-09-06T14:21:07.588Z,101173.00
2022-09-06T14:23:34.559Z,101169.00
2022-09-06T14:26:04.023Z,101164.00
2022-09-06T14:28:33.931Z,101154.00
2022-09-06T14:31:19.300Z,101158.00
2022-09-06T14:33:46.740Z,101163.00
2022-09-06T14:36:17.988Z,101162.00
2022-09-06T14:38:46.744Z,101160.00
2022-09-06T14:41:16.552Z,101157.00
2022-09-06T14:43:48.203Z,101149.00
2022-09-06T14:46:18.241Z,101166.00
2022-09-06T14:48:46.331Z,101161.00
2022-09-06T14:51:19.203Z,101152.00
2022-09-06T14:53:46.663Z,101127.00
2022-09-06T14:56:14.765Z,101148.00
2022-09-06T14:58:43.080Z,101153.00
2022-09-06T15:01:21.441Z,101148.00
2022-09-06T15:03:53.591Z,101155.00
2022-09-06T15:06:23.445Z,101151.00
2022-09-06T15:08:58.951Z,101159.00
2022-09-06T15:11:39.426Z,101153.00
2022-09-06T15:14:14.234Z,101147.00
2022-09-06T15:16:41.131Z,101150.00
2022-09-06T15:19:08.960Z,101146.00
2022-09-06T15:21:36.301Z,101136.00
2022-09-06T15:24:06.418Z,101135.00
2022-09-06T15:26:36.544Z,101127.00
2022-09-06T15:29:04.020Z,101130.00
2022-09-06T15:31:34.403Z,101113.00
2022-09-06T15:34:02.852Z,101124.00
2022-09-06T15:36:31.301Z,101130.00
2022-09-06T15:39:01.291Z,101128.00
2022-09-06T15:41:35.650Z,101125.00
2022-09-06T15:44:09.659Z,101104.00
2022-09-06T15:46:37.358Z,101113.00
2022-09-06T15:49:09.189Z,101102.00
2022-09-06T15:51:39.697Z,101107.00
2022-09-06T15:54:07.581Z,101105.00
2022-09-06T15:56:34.591Z,101100.00
2022-09-06T15:59:01.467Z,101099.00
2022-09-06T16:01:28.524Z,101091.00
2022-09-06T16:04:05.527Z,101107.00
2022-09-06T16:06:42.037Z,101091.00
2022-09-06T16:09:14.512Z,101106.00
2022-09-06T16:11:42.172Z,101106.00
2022-09-06T16:14:14.071Z,101101.00
2022-09-06T16:16:43.610Z,101104.00
2022-09-06T16:19:12.492Z,101104.00
2022-09-06T16:21:42.165Z,101108.00
2022-09-06T16:24:13.043Z,101090.00
2022-09-06T16:26:43.423Z,101099.00
2022-09-06T16:29:13.085Z,101090.00
2022-09-06T16:31:40.923Z,101091.00
2022-09-06T16:34:12.985Z,101084.00
2022-09-06T16:36:40.829Z,101081.00
2022-09-06T16:39:08.743Z,101093.00
2022-09-06T16:41:45.797Z,101092.00
2022-09-06T16:44:17.666Z,101096.00
2022-09-06T16:46:49.782Z,101090.00
2022-09-06T16:49:17.898Z,101096.00
2022-09-06T16:51:45.869Z,101104.00
2022-09-06T16:54:14.593Z,101093.00
2022-09-06T16:56:42.157Z,101104.00
2022-09-06T16:59:10.968Z,101090.00
2022-09-06T17:01:41.867Z,101094.00
2022-09-06T17:04:09.887Z,101096.00
2022-09-06T17:06:44.103Z,101094.00
2022-09-06T17:09:19.159Z,101094.00
2022-09-06T17:11:49.970Z,101092.00
2022-09-06T17:14:18.093Z,101100.00
2022-09-06T17:17:03.264Z,101104.00
2022-09-06T17:19:33.909Z,101109.00
2022-09-06T17:22:00.766Z,101101.00
2022-09-06T17:24:27.909Z,101107.00
2022-09-06T17:26:54.969Z,101106.00
2022-09-06T17:29:24.541Z,101117.00
2022-09-06T17:31:52.261Z,101121.00
2022-09-06T17:34:19.367Z,101118.00
2022-09-06T17:36:46.441Z,101118.00
2022-09-06T17:39:23.339Z,101119.00
2022-09-06T17:41:53.339Z,101124.00
2022-09-06T17:44:25.533Z,101131.00
2022-09-06T17:47:13.078Z,101133.00
2022-09-06T17:49:41.402Z,101131.00
2022-09-06T17:52:08.428Z,101127.00
2022-09-06T17:54:35.735Z,101128.00
2022-09-06T17:57:02.619Z,101139.00
2022-09-06T17:59:35.117Z,101139.00
2022-09-06T18:02:04.981Z,101121.00
2022-09-06T18:04:32.159Z,101113.00
2022-09-06T18:06:59.341Z,101130.00
2022-09-06T18:09:26.215Z,101146.00
2022-09-06T18:11:53.181Z,101145.00
2022-09-06T18:14:21.015Z,101153.00
2022-09-06T18:16:51.293Z,101150.00
2022-09-06T18:19:18.934Z,101155.00
2022-09-06T18:21:47.341Z,101161.00
2022-09-06T18:24:15.084Z,101163.00
2022-09-06T18:26:43.168Z,101158.00
2022-09-06T18:29:16.599Z,101159.00
2022-09-06T18:31:44.457Z,101160.00
2022-09-06T18:34:12.680Z,101153.00
2022-09-06T18:36:40.215Z,101154.00
2022-09-06T18:39:07.547Z,101158.00
2022-09-06T18:41:53.597Z,101149.00
2022-09-06T18:44:21.703Z,101154.00
2022-09-06T18:46:49.843Z,101157.00
2022-09-06T18:49:17.628Z,101156.00
2022-09-06T18:51:45.681Z,101159.00
2022-09-06T18:54:13.706Z,101153.00
2022-09-06T18:56:42.074Z,101160.00
2022-09-06T18:59:10.954Z,101161.00
2022-09-06T19:01:40.984Z,101138.00
2022-09-06T19:04:08.269Z,101131.00
2022-09-06T19:06:38.109Z,101147.00
2022-09-06T19:09:11.835Z,101147.00
2022-09-06T19:11:41.680Z,101156.00
2022-09-06T19:14:08.993Z,101150.00
2022-09-06T19:16:36.164Z,101159.00
2022-09-06T19:19:09.984Z,101149.00
2022-09-06T19:21:41.749Z,101142.00
2022-09-06T19:24:12.261Z,101140.00
2022-09-06T19:26:44.151Z,101147.00
2022-09-06T19:29:17.882Z,101148.00
2022-09-06T19:31:47.112Z,101140.00
2022-09-06T19:34:15.656Z,101137.00
2022-09-06T19:36:44.407Z,101135.00
2022-09-06T19:39:16.482Z,101136.00
2022-09-06T19:41:46.735Z,101121.00
2022-09-06T19:44:18.565Z,101136.00
2022-09-06T19:46:47.001Z,101132.00
2022-09-06T19:49:21.842Z,101126.00
2022-09-06T19:51:50.703Z,101126.00
2022-09-06T19:54:18.739Z,101121.00
2022-09-06T19:56:46.975Z,101125.00
2022-09-06T19:59:15.839Z,101122.00
2022-09-06T20:01:45.319Z,101123.00
2022-09-06T20:04:14.484Z,101113.00
2022-09-06T20:06:42.211Z,101122.00
2022-09-06T20:09:11.764Z,101094.00
2022-09-06T20:11:40.852Z,101121.00
2022-09-06T20:14:09.682Z,101119.00
2022-09-06T20:16:41.205Z,101117.00
2022-09-06T20:19:09.213Z,101117.00
2022-09-06T20:21:36.147Z,101113.00
2022-09-06T20:24:03.373Z,101117.00
2022-09-06T20:26:30.840Z,101109.00
2022-09-06T20:29:00.863Z,101113.00
2022-09-06T20:31:30.087Z,101112.00
2022-09-06T20:34:03.101Z,101114.00
2022-09-06T20:36:30.577Z,101096.00
2022-09-06T20:38:57.789Z,101079.00
2022-09-06T20:41:27.213Z,101107.00
2022-09-06T20:43:59.653Z,101110.00
2022-09-06T20:46:30.827Z,101093.00
2022-09-06T20:49:01.906Z,101102.00
2022-09-06T20:51:29.023Z,101109.00
2022-09-06T20:54:00.182Z,101084.00
2022-09-06T20:56:33.850Z,101093.00
2022-09-06T20:59:04.260Z,101095.00
2022-09-06T21:01:40.038Z,101092.00
2022-09-06T21:04:09.648Z,101099.00
2022-09-06T21:06:39.362Z,101105.00
2022-09-06T21:09:11.056Z,101100.00
2022-09-06T21:11:38.310Z,101096.00
2022-09-06T21:14:07.530Z,101094.00
2022-09-06T21:16:34.648Z,101096.00
2022-09-06T21:19:06.373Z,101087.00
2022-09-06T21:21:35.269Z,101069.00
2022-09-06T21:24:05.311Z,101085.00
2022-09-06T21:26:33.334Z,101089.00
2022-09-06T21:29:00.313Z,101079.00
2022-09-06T21:31:31.380Z,101084.00
2022-09-06T21:34:03.839Z,101090.00
2022-09-06T21:36:39.410Z,101089.00
2022-09-06T21:39:12.433Z,101069.00
2022-09-06T21:41:42.426Z,101092.00
2022-09-06T21:44:10.601Z,101072.00
2022-09-06T21:46:39.300Z,101094.00
2022-09-06T21:49:12.349Z,101086.00
2022-09-06T21:51:40.440Z,101088.00
2022-09-06T21:54:07.433Z,101086.00
2022-09-06T21:56:36.627Z,101087.00
2022-09-06T21:59:05.806Z,101082.00
2022-09-06T22:01:35.622Z,101088.00
2022-09-06T22:04:03.564Z,101083.00
2022-09-06T22:06:32.866Z,101068.00
2022-09-06T22:09:04.288Z,101078.00
2022-09-06T22:11:34.171Z,101083.00
2022-09-06T22:14:05.576Z,101077.00
2022-09-06T22:16:36.788Z,101073.00
2022-09-06T22:19:05.871Z,101072.00
2022-09-06T22:21:34.108Z,101069.00
2022-09-06T22:24:07.831Z,101066.00
2022-09-06T22:26:37.624Z,101066.00
2022-09-06T22:29:08.372Z,101061.00
2022-09-06T22:31:36.609Z,101059.00
2022-09-06T22:34:04.213Z,101046.00
2022-09-06T22:36:31.668Z,101047.00
2022-09-06T22:38:59.230Z,101053.00
2022-09-06T22:41:29.303Z,101060.00
2022-09-06T22:43:56.821Z,101058.00
2022-09-06T22:46:24.396Z,101036.00
2022-09-06T22:48:52.089Z,101049.00
2022-09-06T22:51:19.038Z,101048.00
2022-09-06T22:53:45.968Z,101056.00
2022-09-06T22:56:12.963Z,101049.00
2022-09-06T22:58:39.904Z,101057.00
2022-09-06T23:01:13.805Z,101047.00
2022-09-06T23:03:42.298Z,101044.00
2022-09-06T23:06:09.752Z,101040.00
2022-09-06T23:08:39.664Z,101051.00
2022-09-06T23:11:11.700Z,101050.00
2022-09-06T23:13:43.456Z,101043.00
2022-09-06T23:16:17.292Z,101036.00
2022-09-06T23:18:45.303Z,101045.00
2022-09-06T23:21:19.335Z,101018.00
2022-09-06T23:23:48.513Z,101044.00
2022-09-06T23:26:22.800Z,101031.00
2022-09-06T23:28:56.795Z,101035.00
2022-09-06T23:31:28.002Z,101036.00
2022-09-06T23:33:57.502Z,101037.00
2022-09-06T23:36:25.013Z,101035.00
2022-09-06T23:38:52.416Z,101028.00
2022-09-06T23:41:19.548Z,101024.00
2022-09-06T23:43:46.471Z,101026.00
2022-09-06T23:46:14.959Z,101020.00
2022-09-06T23:48:42.894Z,100998.00
2022-09-06T23:51:10.730Z,101015.00
2022-09-06T23:53:37.864Z,101005.00
2022-09-06T23:56:05.807Z,101005.00
2022-09-06T23:58:33.229Z,101011.00
